sensor_id;sensor_type;location;lat;lon;timestamp;P1;durP1;ratioP1;P2;durP2;ratioP2
35602;SDS011;21725;50.836;4.368;2023-03-21T00:02:36;12.02;;;7.50;;
35602;SDS011;21725;50.836;4.368;2023-03-21T00:05:40;12.55;;;5.70;;
35602;SDS011;21725;50.836;4.368;2023-03-21T00:08:42;12.52;;;6.30;;
35602;SDS011;21725;50.836;4.368;2023-03-21T00:11:45;12.15;;;5.63;;
35602;SDS011;21725;50.836;4.368;2023-03-21T00:14:48;11.45;;;6.60;;
35602;SDS011;21725;50.836;4.368;2023-03-21T00:17:52;10.88;;;5.93;;
35602;SDS011;21725;50.836;4.368;2023-03-21T00:21:03;16.05;;;7.03;;
35602;SDS011;21725;50.836;4.368;2023-03-21T00:24:08;10.13;;;5.40;;
35602;SDS011;21725;50.836;4.368;2023-03-21T00:27:11;15.88;;;6.32;;
35602;SDS011;21725;50.836;4.368;2023-03-21T00:30:12;14.10;;;6.88;;
35602;SDS011;21725;50.836;4.368;2023-03-21T00:33:17;11.52;;;6.43;;
35602;SDS011;21725;50.836;4.368;2023-03-21T00:36:20;12.93;;;6.18;;
35602;SDS011;21725;50.836;4.368;2023-03-21T00:39:24;12.68;;;5.82;;
35602;SDS011;21725;50.836;4.368;2023-03-21T00:42:25;11.70;;;5.68;;
35602;SDS011;21725;50.836;4.368;2023-03-21T00:45:29;14.25;;;6.18;;
35602;SDS011;21725;50.836;4.368;2023-03-21T00:48:30;12.70;;;5.50;;
35602;SDS011;21725;50.836;4.368;2023-03-21T00:51:34;11.38;;;4.75;;
35602;SDS011;21725;50.836;4.368;2023-03-21T00:54:35;11.43;;;4.78;;
35602;SDS011;21725;50.836;4.368;2023-03-21T00:57:36;13.65;;;5.78;;
35602;SDS011;21725;50.836;4.368;2023-03-21T01:00:37;10.02;;;4.72;;
35602;SDS011;21725;50.836;4.368;2023-03-21T01:03:39;9.80;;;4.85;;
35602;SDS011;21725;50.836;4.368;2023-03-21T01:06:46;14.20;;;5.10;;
35602;SDS011;21725;50.836;4.368;2023-03-21T01:09:47;13.15;;;5.88;;
35602;SDS011;21725;50.836;4.368;2023-03-21T01:12:51;13.98;;;5.43;;
35602;SDS011;21725;50.836;4.368;2023-03-21T01:15:53;11.70;;;5.90;;
35602;SDS011;21725;50.836;4.368;2023-03-21T01:18:55;12.82;;;5.30;;
35602;SDS011;21725;50.836;4.368;2023-03-21T01:21:56;13.50;;;5.57;;
35602;SDS011;21725;50.836;4.368;2023-03-21T01:25:00;13.52;;;5.65;;
35602;SDS011;21725;50.836;4.368;2023-03-21T01:28:01;16.13;;;5.95;;
35602;SDS011;21725;50.836;4.368;2023-03-21T01:31:05;15.25;;;6.38;;
35602;SDS011;21725;50.836;4.368;2023-03-21T01:34:08;15.80;;;7.25;;
35602;SDS011;21725;50.836;4.368;2023-03-21T01:37:09;12.77;;;5.55;;
35602;SDS011;21725;50.836;4.368;2023-03-21T01:40:12;14.15;;;6.13;;
35602;SDS011;21725;50.836;4.368;2023-03-21T01:43:27;15.48;;;5.55;;
35602;SDS011;21725;50.836;4.368;2023-03-21T01:49:40;16.48;;;5.90;;
35602;SDS011;21725;50.836;4.368;2023-03-21T01:52:46;16.05;;;5.70;;
35602;SDS011;21725;50.836;4.368;2023-03-21T01:55:51;12.70;;;6.28;;
35602;SDS011;21725;50.836;4.368;2023-03-21T01:58:52;10.98;;;5.60;;
35602;SDS011;21725;50.836;4.368;2023-03-21T02:02:03;11.63;;;5.30;;
35602;SDS011;21725;50.836;4.368;2023-03-21T02:05:08;17.85;;;6.60;;
35602;SDS011;21725;50.836;4.368;2023-03-21T02:08:09;16.48;;;6.38;;
35602;SDS011;21725;50.836;4.368;2023-03-21T02:11:12;12.73;;;5.80;;
35602;SDS011;21725;50.836;4.368;2023-03-21T02:14:14;11.88;;;4.93;;
35602;SDS011;21725;50.836;4.368;2023-03-21T02:17:35;13.77;;;5.70;;
35602;SDS011;21725;50.836;4.368;2023-03-21T02:27:16;11.20;;;4.97;;
35602;SDS011;21725;50.836;4.368;2023-03-21T02:37:45;11.98;;;6.15;;
35602;SDS011;21725;50.836;4.368;2023-03-21T02:44:11;9.52;;;4.10;;
35602;SDS011;21725;50.836;4.368;2023-03-21T02:47:40;12.90;;;4.95;;
35602;SDS011;21725;50.836;4.368;2023-03-21T02:50:52;9.65;;;4.25;;
35602;SDS011;21725;50.836;4.368;2023-03-21T02:54:09;22.08;;;4.60;;
35602;SDS011;21725;50.836;4.368;2023-03-21T02:57:15;10.20;;;4.13;;
35602;SDS011;21725;50.836;4.368;2023-03-21T03:00:19;11.85;;;4.13;;
35602;SDS011;21725;50.836;4.368;2023-03-21T03:03:23;11.50;;;4.20;;
35602;SDS011;21725;50.836;4.368;2023-03-21T03:06:25;17.48;;;5.13;;
35602;SDS011;21725;50.836;4.368;2023-03-21T03:13:14;14.00;;;5.32;;
35602;SDS011;21725;50.836;4.368;2023-03-21T03:27:02;13.30;;;5.18;;
35602;SDS011;21725;50.836;4.368;2023-03-21T03:30:10;14.93;;;5.10;;
35602;SDS011;21725;50.836;4.368;2023-03-21T03:33:15;14.75;;;4.32;;
35602;SDS011;21725;50.836;4.368;2023-03-21T03:36:24;10.13;;;5.00;;
35602;SDS011;21725;50.836;4.368;2023-03-21T03:39:32;10.82;;;3.65;;
35602;SDS011;21725;50.836;4.368;2023-03-21T03:42:40;12.05;;;4.15;;
35602;SDS011;21725;50.836;4.368;2023-03-21T03:45:54;14.13;;;5.63;;
35602;SDS011;21725;50.836;4.368;2023-03-21T03:49:03;13.27;;;4.65;;
35602;SDS011;21725;50.836;4.368;2023-03-21T03:52:18;13.20;;;5.18;;
35602;SDS011;21725;50.836;4.368;2023-03-21T03:55:28;11.73;;;5.22;;
35602;SDS011;21725;50.836;4.368;2023-03-21T03:58:33;15.95;;;5.72;;
35602;SDS011;21725;50.836;4.368;2023-03-21T04:01:37;9.48;;;4.90;;
35602;SDS011;21725;50.836;4.368;2023-03-21T04:04:38;13.20;;;5.28;;
35602;SDS011;21725;50.836;4.368;2023-03-21T04:07:39;16.70;;;5.45;;
35602;SDS011;21725;50.836;4.368;2023-03-21T04:10:40;12.90;;;4.60;;
35602;SDS011;21725;50.836;4.368;2023-03-21T04:13:42;12.98;;;5.15;;
35602;SDS011;21725;50.836;4.368;2023-03-21T04:16:45;11.30;;;5.82;;
35602;SDS011;21725;50.836;4.368;2023-03-21T04:19:46;13.70;;;6.30;;
35602;SDS011;21725;50.836;4.368;2023-03-21T04:22:47;13.65;;;5.45;;
35602;SDS011;21725;50.836;4.368;2023-03-21T04:25:47;14.90;;;6.22;;
35602;SDS011;21725;50.836;4.368;2023-03-21T04:28:50;16.73;;;6.30;;
35602;SDS011;21725;50.836;4.368;2023-03-21T04:31:51;13.23;;;5.45;;
35602;SDS011;21725;50.836;4.368;2023-03-21T04:34:52;13.40;;;5.38;;
35602;SDS011;21725;50.836;4.368;2023-03-21T04:37:53;17.10;;;6.03;;
35602;SDS011;21725;50.836;4.368;2023-03-21T04:40:55;13.70;;;5.72;;
35602;SDS011;21725;50.836;4.368;2023-03-21T04:43:56;10.55;;;4.90;;
35602;SDS011;21725;50.836;4.368;2023-03-21T04:47:00;16.35;;;6.63;;
35602;SDS011;21725;50.836;4.368;2023-03-21T04:50:01;17.65;;;6.32;;
35602;SDS011;21725;50.836;4.368;2023-03-21T04:53:02;16.73;;;6.18;;
35602;SDS011;21725;50.836;4.368;2023-03-21T04:56:05;14.65;;;5.72;;
35602;SDS011;21725;50.836;4.368;2023-03-21T04:59:09;21.73;;;7.55;;
35602;SDS011;21725;50.836;4.368;2023-03-21T05:26:28;16.55;;;7.15;;
35602;SDS011;21725;50.836;4.368;2023-03-21T05:29:29;13.77;;;5.78;;
35602;SDS011;21725;50.836;4.368;2023-03-21T05:32:33;13.00;;;6.60;;
35602;SDS011;21725;50.836;4.368;2023-03-21T05:35:34;13.38;;;6.10;;
35602;SDS011;21725;50.836;4.368;2023-03-21T05:38:37;18.27;;;7.10;;
35602;SDS011;21725;50.836;4.368;2023-03-21T05:41:47;16.63;;;6.68;;
35602;SDS011;21725;50.836;4.368;2023-03-21T05:44:48;18.70;;;6.60;;
35602;SDS011;21725;50.836;4.368;2023-03-21T05:47:54;19.63;;;6.57;;
35602;SDS011;21725;50.836;4.368;2023-03-21T05:50:54;12.45;;;5.90;;
35602;SDS011;21725;50.836;4.368;2023-03-21T05:53:55;14.40;;;6.47;;
35602;SDS011;21725;50.836;4.368;2023-03-21T05:56:56;18.65;;;8.77;;
35602;SDS011;21725;50.836;4.368;2023-03-21T05:59:58;13.73;;;6.57;;
35602;SDS011;21725;50.836;4.368;2023-03-21T06:02:58;14.48;;;6.10;;
35602;SDS011;21725;50.836;4.368;2023-03-21T06:05:59;13.32;;;5.88;;
35602;SDS011;21725;50.836;4.368;2023-03-21T06:09:02;15.18;;;6.72;;
35602;SDS011;21725;50.836;4.368;2023-03-21T06:12:06;14.25;;;6.93;;
35602;SDS011;21725;50.836;4.368;2023-03-21T06:15:07;17.77;;;6.35;;
35602;SDS011;21725;50.836;4.368;2023-03-21T06:18:08;23.13;;;6.97;;
35602;SDS011;21725;50.836;4.368;2023-03-21T06:21:11;16.90;;;6.50;;
35602;SDS011;21725;50.836;4.368;2023-03-21T06:24:13;11.60;;;6.30;;
35602;SDS011;21725;50.836;4.368;2023-03-21T06:27:16;14.40;;;7.38;;
35602;SDS011;21725;50.836;4.368;2023-03-21T06:30:17;16.75;;;6.18;;
35602;SDS011;21725;50.836;4.368;2023-03-21T06:33:18;15.82;;;8.38;;
35602;SDS011;21725;50.836;4.368;2023-03-21T06:36:22;13.65;;;5.32;;
35602;SDS011;21725;50.836;4.368;2023-03-21T06:39:26;10.05;;;5.75;;
35602;SDS011;21725;50.836;4.368;2023-03-21T06:42:27;14.82;;;5.88;;
35602;SDS011;21725;50.836;4.368;2023-03-21T06:45:29;14.80;;;6.25;;
35602;SDS011;21725;50.836;4.368;2023-03-21T06:48:30;17.45;;;5.47;;
35602;SDS011;21725;50.836;4.368;2023-03-21T06:51:31;9.20;;;4.63;;
35602;SDS011;21725;50.836;4.368;2023-03-21T06:54:32;14.63;;;5.70;;
35602;SDS011;21725;50.836;4.368;2023-03-21T06:57:36;10.30;;;5.05;;
35602;SDS011;21725;50.836;4.368;2023-03-21T07:00:40;11.52;;;5.80;;
35602;SDS011;21725;50.836;4.368;2023-03-21T07:03:41;12.82;;;4.97;;
35602;SDS011;21725;50.836;4.368;2023-03-21T07:06:42;9.98;;;5.32;;
35602;SDS011;21725;50.836;4.368;2023-03-21T07:09:43;8.45;;;4.40;;
35602;SDS011;21725;50.836;4.368;2023-03-21T07:12:44;9.52;;;4.50;;
35602;SDS011;21725;50.836;4.368;2023-03-21T07:15:45;7.43;;;4.03;;
35602;SDS011;21725;50.836;4.368;2023-03-21T07:18:46;8.52;;;4.88;;
35602;SDS011;21725;50.836;4.368;2023-03-21T07:21:47;10.73;;;4.20;;
35602;SDS011;21725;50.836;4.368;2023-03-21T07:24:48;10.55;;;4.22;;
35602;SDS011;21725;50.836;4.368;2023-03-21T07:27:49;9.07;;;4.40;;
35602;SDS011;21725;50.836;4.368;2023-03-21T07:30:51;9.55;;;3.72;;
35602;SDS011;21725;50.836;4.368;2023-03-21T07:33:54;11.23;;;3.50;;
35602;SDS011;21725;50.836;4.368;2023-03-21T07:36:55;8.02;;;3.92;;
35602;SDS011;21725;50.836;4.368;2023-03-21T07:39:56;9.30;;;4.05;;
35602;SDS011;21725;50.836;4.368;2023-03-21T07:42:58;11.43;;;3.88;;
35602;SDS011;21725;50.836;4.368;2023-03-21T07:45:59;8.70;;;4.20;;
35602;SDS011;21725;50.836;4.368;2023-03-21T07:49:00;10.15;;;4.82;;
35602;SDS011;21725;50.836;4.368;2023-03-21T07:52:01;8.93;;;3.83;;
35602;SDS011;21725;50.836;4.368;2023-03-21T07:55:06;7.95;;;3.40;;
35602;SDS011;21725;50.836;4.368;2023-03-21T07:58:08;11.40;;;4.18;;
35602;SDS011;21725;50.836;4.368;2023-03-21T08:01:09;9.30;;;3.67;;
35602;SDS011;21725;50.836;4.368;2023-03-21T08:04:10;10.05;;;4.68;;
35602;SDS011;21725;50.836;4.368;2023-03-21T08:07:13;9.43;;;4.25;;
35602;SDS011;21725;50.836;4.368;2023-03-21T08:10:14;8.98;;;4.53;;
35602;SDS011;21725;50.836;4.368;2023-03-21T08:13:18;9.07;;;4.70;;
35602;SDS011;21725;50.836;4.368;2023-03-21T08:16:21;9.52;;;3.90;;
35602;SDS011;21725;50.836;4.368;2023-03-21T08:19:22;14.40;;;4.78;;
35602;SDS011;21725;50.836;4.368;2023-03-21T08:22:23;8.50;;;4.47;;
35602;SDS011;21725;50.836;4.368;2023-03-21T08:25:24;9.32;;;4.70;;
35602;SDS011;21725;50.836;4.368;2023-03-21T08:28:25;10.40;;;4.18;;
35602;SDS011;21725;50.836;4.368;2023-03-21T08:31:29;17.42;;;5.50;;
35602;SDS011;21725;50.836;4.368;2023-03-21T08:34:30;10.02;;;4.20;;
35602;SDS011;21725;50.836;4.368;2023-03-21T08:37:30;12.23;;;4.90;;
35602;SDS011;21725;50.836;4.368;2023-03-21T08:40:31;8.38;;;4.68;;
35602;SDS011;21725;50.836;4.368;2023-03-21T08:43:32;14.35;;;4.97;;
35602;SDS011;21725;50.836;4.368;2023-03-21T08:46:33;10.07;;;3.97;;
35602;SDS011;21725;50.836;4.368;2023-03-21T08:49:34;9.40;;;3.45;;
35602;SDS011;21725;50.836;4.368;2023-03-21T08:52:35;11.93;;;4.03;;
35602;SDS011;21725;50.836;4.368;2023-03-21T08:55:36;9.95;;;3.92;;
35602;SDS011;21725;50.836;4.368;2023-03-21T08:58:39;7.88;;;3.70;;
35602;SDS011;21725;50.836;4.368;2023-03-21T09:01:40;10.48;;;4.13;;
35602;SDS011;21725;50.836;4.368;2023-03-21T09:04:41;17.17;;;4.75;;
35602;SDS011;21725;50.836;4.368;2023-03-21T09:07:43;8.27;;;4.13;;
35602;SDS011;21725;50.836;4.368;2023-03-21T09:10:44;16.63;;;4.47;;
35602;SDS011;21725;50.836;4.368;2023-03-21T09:13:45;13.52;;;4.28;;
35602;SDS011;21725;50.836;4.368;2023-03-21T09:16:46;10.60;;;3.65;;
35602;SDS011;21725;50.836;4.368;2023-03-21T09:19:47;8.90;;;3.47;;
35602;SDS011;21725;50.836;4.368;2023-03-21T09:22:49;9.45;;;3.95;;
35602;SDS011;21725;50.836;4.368;2023-03-21T09:25:53;10.73;;;4.47;;
35602;SDS011;21725;50.836;4.368;2023-03-21T09:28:54;9.15;;;3.85;;
35602;SDS011;21725;50.836;4.368;2023-03-21T09:31:55;11.80;;;4.05;;
35602;SDS011;21725;50.836;4.368;2023-03-21T09:34:56;10.18;;;3.90;;
35602;SDS011;21725;50.836;4.368;2023-03-21T09:38:00;12.35;;;4.93;;
35602;SDS011;21725;50.836;4.368;2023-03-21T09:41:08;9.65;;;3.88;;
35602;SDS011;21725;50.836;4.368;2023-03-21T09:44:30;15.23;;;5.35;;
35602;SDS011;21725;50.836;4.368;2023-03-21T09:47:44;9.27;;;3.70;;
35602;SDS011;21725;50.836;4.368;2023-03-21T09:50:54;11.05;;;4.65;;
35602;SDS011;21725;50.836;4.368;2023-03-21T09:53:56;13.07;;;3.95;;
35602;SDS011;21725;50.836;4.368;2023-03-21T09:57:08;10.00;;;3.88;;
35602;SDS011;21725;50.836;4.368;2023-03-21T10:00:24;14.82;;;3.90;;
35602;SDS011;21725;50.836;4.368;2023-03-21T10:03:29;12.05;;;5.32;;
35602;SDS011;21725;50.836;4.368;2023-03-21T10:06:34;10.45;;;4.10;;
35602;SDS011;21725;50.836;4.368;2023-03-21T10:09:39;8.80;;;4.20;;
35602;SDS011;21725;50.836;4.368;2023-03-21T10:12:43;13.25;;;4.53;;
35602;SDS011;21725;50.836;4.368;2023-03-21T10:15:46;9.65;;;3.65;;
35602;SDS011;21725;50.836;4.368;2023-03-21T10:18:47;8.93;;;4.88;;
35602;SDS011;21725;50.836;4.368;2023-03-21T10:21:50;15.80;;;4.93;;
35602;SDS011;21725;50.836;4.368;2023-03-21T10:24:51;7.03;;;3.58;;
35602;SDS011;21725;50.836;4.368;2023-03-21T10:27:52;11.68;;;4.93;;
35602;SDS011;21725;50.836;4.368;2023-03-21T10:30:54;9.82;;;3.92;;
35602;SDS011;21725;50.836;4.368;2023-03-21T10:33:59;12.57;;;4.80;;
35602;SDS011;21725;50.836;4.368;2023-03-21T10:37:05;12.75;;;4.00;;
35602;SDS011;21725;50.836;4.368;2023-03-21T10:40:09;8.23;;;3.38;;
35602;SDS011;21725;50.836;4.368;2023-03-21T10:43:17;11.68;;;4.03;;
35602;SDS011;21725;50.836;4.368;2023-03-21T10:46:24;6.28;;;3.70;;
35602;SDS011;21725;50.836;4.368;2023-03-21T10:49:26;7.47;;;3.78;;
35602;SDS011;21725;50.836;4.368;2023-03-21T10:52:30;10.75;;;5.32;;
35602;SDS011;21725;50.836;4.368;2023-03-21T10:55:34;9.48;;;4.85;;
35602;SDS011;21725;50.836;4.368;2023-03-21T10:58:44;8.70;;;5.15;;
35602;SDS011;21725;50.836;4.368;2023-03-21T11:01:47;7.75;;;4.63;;
35602;SDS011;21725;50.836;4.368;2023-03-21T11:25:36;12.15;;;5.35;;
35602;SDS011;21725;50.836;4.368;2023-03-21T11:28:40;13.63;;;5.38;;
35602;SDS011;21725;50.836;4.368;2023-03-21T11:31:43;11.43;;;4.60;;
35602;SDS011;21725;50.836;4.368;2023-03-21T11:37:55;8.00;;;3.88;;
35602;SDS011;21725;50.836;4.368;2023-03-21T11:40:57;9.40;;;3.97;;
35602;SDS011;21725;50.836;4.368;2023-03-21T11:44:00;11.98;;;3.75;;
35602;SDS011;21725;50.836;4.368;2023-03-21T11:47:01;9.27;;;4.15;;
35602;SDS011;21725;50.836;4.368;2023-03-21T11:50:05;10.95;;;4.45;;
35602;SDS011;21725;50.836;4.368;2023-03-21T11:53:27;9.45;;;4.63;;
35602;SDS011;21725;50.836;4.368;2023-03-21T11:56:44;16.02;;;4.75;;
35602;SDS011;21725;50.836;4.368;2023-03-21T12:00:11;11.85;;;5.57;;
35602;SDS011;21725;50.836;4.368;2023-03-21T12:06:45;14.45;;;4.07;;
35602;SDS011;21725;50.836;4.368;2023-03-21T12:26:28;11.38;;;5.55;;
35602;SDS011;21725;50.836;4.368;2023-03-21T12:39:36;9.63;;;4.43;;
35602;SDS011;21725;50.836;4.368;2023-03-21T12:42:49;9.00;;;4.30;;
35602;SDS011;21725;50.836;4.368;2023-03-21T12:46:21;11.80;;;4.18;;
35602;SDS011;21725;50.836;4.368;2023-03-21T12:49:28;9.55;;;3.95;;
35602;SDS011;21725;50.836;4.368;2023-03-21T12:52:34;8.73;;;4.20;;
35602;SDS011;21725;50.836;4.368;2023-03-21T12:55:40;12.15;;;5.07;;
35602;SDS011;21725;50.836;4.368;2023-03-21T12:58:46;9.90;;;5.75;;
35602;SDS011;21725;50.836;4.368;2023-03-21T13:01:52;12.95;;;5.20;;
35602;SDS011;21725;50.836;4.368;2023-03-21T13:05:02;15.27;;;5.40;;
35602;SDS011;21725;50.836;4.368;2023-03-21T13:11:46;9.95;;;4.60;;
35602;SDS011;21725;50.836;4.368;2023-03-21T13:15:13;11.45;;;4.18;;
35602;SDS011;21725;50.836;4.368;2023-03-21T13:21:40;7.93;;;3.67;;
35602;SDS011;21725;50.836;4.368;2023-03-21T13:27:50;12.13;;;4.40;;
35602;SDS011;21725;50.836;4.368;2023-03-21T13:34:16;14.20;;;5.22;;
35602;SDS011;21725;50.836;4.368;2023-03-21T13:37:21;8.40;;;4.35;;
35602;SDS011;21725;50.836;4.368;2023-03-21T13:40:26;13.05;;;4.63;;
35602;SDS011;21725;50.836;4.368;2023-03-21T13:44:04;13.77;;;5.68;;
35602;SDS011;21725;50.836;4.368;2023-03-21T13:47:22;10.90;;;4.80;;
35602;SDS011;21725;50.836;4.368;2023-03-21T13:50:49;8.00;;;3.90;;
35602;SDS011;21725;50.836;4.368;2023-03-21T13:57:17;7.57;;;4.40;;
35602;SDS011;21725;50.836;4.368;2023-03-21T14:03:38;8.88;;;4.07;;
35602;SDS011;21725;50.836;4.368;2023-03-21T14:06:42;8.57;;;4.43;;
35602;SDS011;21725;50.836;4.368;2023-03-21T14:09:48;16.17;;;4.35;;
35602;SDS011;21725;50.836;4.368;2023-03-21T14:12:51;13.70;;;4.45;;
35602;SDS011;21725;50.836;4.368;2023-03-21T14:15:53;13.35;;;6.68;;
35602;SDS011;21725;50.836;4.368;2023-03-21T14:19:00;14.18;;;4.45;;
35602;SDS011;21725;50.836;4.368;2023-03-21T14:22:03;12.63;;;4.80;;
35602;SDS011;21725;50.836;4.368;2023-03-21T14:25:13;12.07;;;5.20;;
35602;SDS011;21725;50.836;4.368;2023-03-21T14:28:24;7.93;;;5.10;;
35602;SDS011;21725;50.836;4.368;2023-03-21T14:31:32;10.05;;;5.43;;
35602;SDS011;21725;50.836;4.368;2023-03-21T14:34:34;9.70;;;5.40;;
35602;SDS011;21725;50.836;4.368;2023-03-21T14:37:37;8.02;;;4.85;;
35602;SDS011;21725;50.836;4.368;2023-03-21T14:40:45;7.85;;;4.88;;
35602;SDS011;21725;50.836;4.368;2023-03-21T14:43:59;7.55;;;4.70;;
35602;SDS011;21725;50.836;4.368;2023-03-21T14:47:05;17.77;;;6.10;;
35602;SDS011;21725;50.836;4.368;2023-03-21T14:50:09;7.07;;;4.70;;
35602;SDS011;21725;50.836;4.368;2023-03-21T14:53:20;10.13;;;5.93;;
35602;SDS011;21725;50.836;4.368;2023-03-21T14:56:32;7.53;;;5.00;;
35602;SDS011;21725;50.836;4.368;2023-03-21T14:59:36;7.55;;;4.65;;
35602;SDS011;21725;50.836;4.368;2023-03-21T15:02:38;6.47;;;4.35;;
35602;SDS011;21725;50.836;4.368;2023-03-21T15:05:42;8.73;;;5.20;;
35602;SDS011;21725;50.836;4.368;2023-03-21T15:08:53;11.27;;;5.20;;
35602;SDS011;21725;50.836;4.368;2023-03-21T15:12:00;9.60;;;5.68;;
35602;SDS011;21725;50.836;4.368;2023-03-21T15:18:10;9.50;;;6.00;;
35602;SDS011;21725;50.836;4.368;2023-03-21T15:24:31;9.85;;;5.50;;
35602;SDS011;21725;50.836;4.368;2023-03-21T15:27:40;11.32;;;4.68;;
35602;SDS011;21725;50.836;4.368;2023-03-21T15:30:48;9.35;;;4.50;;
35602;SDS011;21725;50.836;4.368;2023-03-21T15:33:51;8.18;;;5.18;;
35602;SDS011;21725;50.836;4.368;2023-03-21T15:36:57;8.43;;;4.97;;
35602;SDS011;21725;50.836;4.368;2023-03-21T15:40:08;11.40;;;5.28;;
35602;SDS011;21725;50.836;4.368;2023-03-21T15:43:24;9.90;;;5.10;;
35602;SDS011;21725;50.836;4.368;2023-03-21T15:49:38;10.13;;;5.50;;
35602;SDS011;21725;50.836;4.368;2023-03-21T15:52:42;12.13;;;6.10;;
35602;SDS011;21725;50.836;4.368;2023-03-21T15:55:45;10.52;;;6.03;;
35602;SDS011;21725;50.836;4.368;2023-03-21T15:58:50;9.95;;;6.45;;
35602;SDS011;21725;50.836;4.368;2023-03-21T16:01:52;9.75;;;6.65;;
35602;SDS011;21725;50.836;4.368;2023-03-21T16:08:27;13.05;;;7.45;;
35602;SDS011;21725;50.836;4.368;2023-03-21T16:11:37;8.90;;;6.95;;
35602;SDS011;21725;50.836;4.368;2023-03-21T16:14:42;12.43;;;7.00;;
35602;SDS011;21725;50.836;4.368;2023-03-21T16:17:46;8.45;;;5.93;;
35602;SDS011;21725;50.836;4.368;2023-03-21T16:20:53;10.57;;;7.10;;
35602;SDS011;21725;50.836;4.368;2023-03-21T16:23:56;12.55;;;7.45;;
35602;SDS011;21725;50.836;4.368;2023-03-21T16:27:01;10.88;;;6.88;;
35602;SDS011;21725;50.836;4.368;2023-03-21T16:30:01;12.27;;;6.07;;
35602;SDS011;21725;50.836;4.368;2023-03-21T16:33:03;10.38;;;6.28;;
35602;SDS011;21725;50.836;4.368;2023-03-21T16:36:03;17.42;;;7.15;;
35602;SDS011;21725;50.836;4.368;2023-03-21T16:39:10;15.13;;;6.13;;
35602;SDS011;21725;50.836;4.368;2023-03-21T16:42:21;9.57;;;6.03;;
35602;SDS011;21725;50.836;4.368;2023-03-21T16:45:27;10.27;;;5.90;;
35602;SDS011;21725;50.836;4.368;2023-03-21T16:48:29;12.13;;;5.47;;
35602;SDS011;21725;50.836;4.368;2023-03-21T16:51:34;9.07;;;4.65;;
35602;SDS011;21725;50.836;4.368;2023-03-21T16:54:35;11.35;;;4.70;;
35602;SDS011;21725;50.836;4.368;2023-03-21T16:57:37;9.10;;;5.03;;
35602;SDS011;21725;50.836;4.368;2023-03-21T17:00:38;8.07;;;5.20;;
35602;SDS011;21725;50.836;4.368;2023-03-21T17:25:38;10.30;;;5.22;;
35602;SDS011;21725;50.836;4.368;2023-03-21T17:28:40;29.67;;;19.33;;
35602;SDS011;21725;50.836;4.368;2023-03-21T17:31:41;16.90;;;9.38;;
35602;SDS011;21725;50.836;4.368;2023-03-21T17:34:46;12.05;;;6.72;;
35602;SDS011;21725;50.836;4.368;2023-03-21T17:37:52;17.55;;;7.78;;
35602;SDS011;21725;50.836;4.368;2023-03-21T17:40:53;15.05;;;8.20;;
35602;SDS011;21725;50.836;4.368;2023-03-21T17:43:54;14.20;;;8.73;;
35602;SDS011;21725;50.836;4.368;2023-03-21T17:46:55;15.35;;;8.20;;
35602;SDS011;21725;50.836;4.368;2023-03-21T17:49:55;16.15;;;9.90;;
35602;SDS011;21725;50.836;4.368;2023-03-21T17:52:56;23.90;;;12.38;;
35602;SDS011;21725;50.836;4.368;2023-03-21T17:56:00;17.42;;;10.85;;
35602;SDS011;21725;50.836;4.368;2023-03-21T17:59:01;17.15;;;11.25;;
35602;SDS011;21725;50.836;4.368;2023-03-21T18:02:04;15.23;;;10.68;;
35602;SDS011;21725;50.836;4.368;2023-03-21T18:05:06;16.38;;;9.82;;
35602;SDS011;21725;50.836;4.368;2023-03-21T18:08:09;13.57;;;10.73;;
35602;SDS011;21725;50.836;4.368;2023-03-21T18:11:10;11.82;;;8.45;;
35602;SDS011;21725;50.836;4.368;2023-03-21T18:14:14;13.48;;;8.75;;
35602;SDS011;21725;50.836;4.368;2023-03-21T18:17:15;11.73;;;8.52;;
35602;SDS011;21725;50.836;4.368;2023-03-21T18:20:19;14.13;;;7.18;;
35602;SDS011;21725;50.836;4.368;2023-03-21T18:23:25;12.60;;;6.70;;
35602;SDS011;21725;50.836;4.368;2023-03-21T18:26:25;11.52;;;6.43;;
35602;SDS011;21725;50.836;4.368;2023-03-21T18:29:28;16.95;;;6.15;;
35602;SDS011;21725;50.836;4.368;2023-03-21T18:32:31;11.98;;;5.60;;
35602;SDS011;21725;50.836;4.368;2023-03-21T18:35:32;26.30;;;6.20;;
35602;SDS011;21725;50.836;4.368;2023-03-21T18:38:33;9.07;;;5.75;;
35602;SDS011;21725;50.836;4.368;2023-03-21T18:41:35;8.98;;;6.10;;
35602;SDS011;21725;50.836;4.368;2023-03-21T18:44:36;9.93;;;6.53;;
35602;SDS011;21725;50.836;4.368;2023-03-21T18:47:38;7.78;;;5.47;;
35602;SDS011;21725;50.836;4.368;2023-03-21T18:50:40;10.35;;;5.70;;
35602;SDS011;21725;50.836;4.368;2023-03-21T18:53:41;10.05;;;5.78;;
35602;SDS011;21725;50.836;4.368;2023-03-21T18:56:42;10.40;;;6.63;;
35602;SDS011;21725;50.836;4.368;2023-03-21T18:59:44;10.93;;;5.85;;
35602;SDS011;21725;50.836;4.368;2023-03-21T19:02:46;9.32;;;5.53;;
35602;SDS011;21725;50.836;4.368;2023-03-21T19:05:48;8.98;;;5.50;;
35602;SDS011;21725;50.836;4.368;2023-03-21T19:08:48;9.25;;;5.68;;
35602;SDS011;21725;50.836;4.368;2023-03-21T19:11:49;9.63;;;5.80;;
35602;SDS011;21725;50.836;4.368;2023-03-21T19:14:50;8.48;;;5.65;;
35602;SDS011;21725;50.836;4.368;2023-03-21T19:17:52;15.43;;;8.48;;
35602;SDS011;21725;50.836;4.368;2023-03-21T19:20:53;15.77;;;8.52;;
35602;SDS011;21725;50.836;4.368;2023-03-21T19:23:54;11.32;;;7.88;;
35602;SDS011;21725;50.836;4.368;2023-03-21T19:26:56;13.90;;;7.55;;
35602;SDS011;21725;50.836;4.368;2023-03-21T19:29:58;14.75;;;8.15;;
35602;SDS011;21725;50.836;4.368;2023-03-21T19:33:00;12.40;;;7.22;;
35602;SDS011;21725;50.836;4.368;2023-03-21T19:36:01;11.25;;;6.97;;
35602;SDS011;21725;50.836;4.368;2023-03-21T19:39:03;9.88;;;7.50;;
35602;SDS011;21725;50.836;4.368;2023-03-21T19:42:03;13.25;;;8.57;;
35602;SDS011;21725;50.836;4.368;2023-03-21T19:45:05;12.57;;;7.45;;
35602;SDS011;21725;50.836;4.368;2023-03-21T19:48:06;20.23;;;12.82;;
35602;SDS011;21725;50.836;4.368;2023-03-21T19:51:07;17.55;;;9.70;;
35602;SDS011;21725;50.836;4.368;2023-03-21T19:54:09;14.82;;;8.55;;
35602;SDS011;21725;50.836;4.368;2023-03-21T19:57:09;13.77;;;7.95;;
35602;SDS011;21725;50.836;4.368;2023-03-21T20:00:10;13.40;;;7.72;;
35602;SDS011;21725;50.836;4.368;2023-03-21T20:03:11;13.52;;;6.88;;
35602;SDS011;21725;50.836;4.368;2023-03-21T20:06:12;9.50;;;4.47;;
35602;SDS011;21725;50.836;4.368;2023-03-21T20:09:13;24.85;;;8.80;;
35602;SDS011;21725;50.836;4.368;2023-03-21T20:12:14;14.43;;;6.78;;
35602;SDS011;21725;50.836;4.368;2023-03-21T20:15:15;32.38;;;13.30;;
35602;SDS011;21725;50.836;4.368;2023-03-21T20:18:16;36.35;;;14.95;;
35602;SDS011;21725;50.836;4.368;2023-03-21T20:21:17;22.23;;;8.57;;
35602;SDS011;21725;50.836;4.368;2023-03-21T20:24:18;25.38;;;10.55;;
35602;SDS011;21725;50.836;4.368;2023-03-21T20:27:19;15.23;;;6.88;;
35602;SDS011;21725;50.836;4.368;2023-03-21T20:30:24;20.25;;;6.57;;
35602;SDS011;21725;50.836;4.368;2023-03-21T20:33:27;12.13;;;4.53;;
35602;SDS011;21725;50.836;4.368;2023-03-21T20:36:28;9.73;;;4.97;;
35602;SDS011;21725;50.836;4.368;2023-03-21T20:39:29;9.48;;;4.57;;
35602;SDS011;21725;50.836;4.368;2023-03-21T20:42:30;10.27;;;5.50;;
35602;SDS011;21725;50.836;4.368;2023-03-21T20:45:33;14.70;;;4.88;;
35602;SDS011;21725;50.836;4.368;2023-03-21T20:48:34;9.70;;;4.68;;
35602;SDS011;21725;50.836;4.368;2023-03-21T20:51:37;11.80;;;5.15;;
35602;SDS011;21725;50.836;4.368;2023-03-21T20:54:38;8.60;;;4.35;;
35602;SDS011;21725;50.836;4.368;2023-03-21T20:57:39;12.70;;;5.03;;
35602;SDS011;21725;50.836;4.368;2023-03-21T21:00:40;11.90;;;3.85;;
35602;SDS011;21725;50.836;4.368;2023-03-21T21:03:43;10.60;;;4.88;;
35602;SDS011;21725;50.836;4.368;2023-03-21T21:06:44;11.55;;;4.20;;